KJTC

Springerville Municipal Airport

Springerville, Arizona, USA
METAR KJTC 151835Z AUTO 24021G31KT 10SM CLR 11/M02 A3004 RMK AO2
Observed Flight Rules
Feb-15 @ 18:35 UTC (29 minutes ago) Visual Flight Rules
Wind Visibility Clouds
240° at 21 knots
 Gusting to 31 knots
10 miles
  • Clear skies
Temperatures Readings
Current 11°C / 52°F
Dewpoint -2°C / 28°F
Humidity 41%
Altimeter 30.04" Hg
Pressure 1017.32 hPa
Elevation 2150
METAR KJTC 151835Z AUTO 24021G31KT 10SM CLR 11/M02 A3004 RMK AO2
Observed Flight Rules
Feb-15 @ 18:35 UTC
(29 minutes ago)
VFR
Wind Visibility
240° at 21 knots
 Gusting to 31 knots
10 miles
Clouds
  • Clear skies
Temperature Dewpoint
11°C / 52°F -2°C / 28°F
Humidity Altimeter Pressure
41% 30.04" Hg 1017.32 hPa